createdAt,value
2018-09-02T00:00:45.952Z,102543.90
2018-09-02T00:03:49.282Z,102545.64
2018-09-02T00:06:52.597Z,102551.75
2018-09-02T00:09:55.866Z,102548.63
2018-09-02T00:12:59.400Z,102545.50
2018-09-02T00:16:02.671Z,102544.13
2018-09-02T00:19:06.612Z,102544.65
2018-09-02T00:22:09.880Z,102548.22
2018-09-02T00:25:13.074Z,102545.37
2018-09-02T00:28:16.372Z,102535.92
2018-09-02T00:31:19.677Z,102539.29
2018-09-02T00:34:23.019Z,102538.99
2018-09-02T00:37:26.395Z,102531.63
2018-09-02T00:40:29.685Z,102528.87
2018-09-02T00:43:32.959Z,102528.45
2018-09-02T00:46:36.700Z,102533.19
2018-09-02T00:49:39.970Z,102531.14
2018-09-02T00:52:43.277Z,102525.05
2018-09-02T00:55:47.587Z,102522.03
2018-09-02T00:58:50.883Z,102521.36
2018-09-02T01:01:54.087Z,102520.89
2018-09-02T01:04:57.402Z,102523.29
2018-09-02T01:08:00.699Z,102515.94
2018-09-02T01:11:03.962Z,102513.88
2018-09-02T01:14:07.851Z,102510.17
2018-09-02T01:17:11.078Z,102508.00
2018-09-02T01:20:15.427Z,102508.26
2018-09-02T01:23:18.834Z,102507.42
2018-09-02T01:26:22.063Z,102509.34
2018-09-02T01:29:25.372Z,102507.08
2018-09-02T01:32:28.688Z,102507.98
2018-09-02T01:35:33.445Z,102507.24
2018-09-02T01:38:38.851Z,102504.00
2018-09-02T01:41:42.070Z,102505.53
2018-09-02T01:44:45.364Z,102504.29
2018-09-02T01:47:48.785Z,102500.22
2018-09-02T01:50:52.061Z,102498.13
2018-09-02T01:53:55.272Z,102498.12
2018-09-02T01:56:58.574Z,102493.00
2018-09-02T02:00:01.728Z,102487.25
2018-09-02T02:03:04.942Z,102485.99
2018-09-02T02:06:09.255Z,102476.39
2018-09-02T02:09:12.609Z,102481.58
2018-09-02T02:12:15.856Z,102475.36
2018-09-02T02:15:19.255Z,102474.28
2018-09-02T02:18:22.547Z,102475.01
2018-09-02T02:21:25.848Z,102469.53
2018-09-02T02:24:29.280Z,102468.88
2018-09-02T02:27:32.551Z,102472.87
2018-09-02T02:30:35.951Z,102472.70
2018-09-02T02:33:40.222Z,102465.07
2018-09-02T02:36:43.467Z,102468.33
2018-09-02T02:39:46.732Z,102469.24
2018-09-02T02:42:50.076Z,102466.00
2018-09-02T02:45:53.348Z,102466.43
2018-09-02T02:48:56.579Z,102462.32
2018-09-02T02:51:59.844Z,102463.49
2018-09-02T02:55:03.141Z,102458.09
2018-09-02T02:58:06.392Z,102450.27
2018-09-02T03:01:10.645Z,102449.40
2018-09-02T03:04:13.977Z,102441.91
2018-09-02T03:07:17.322Z,102442.26
2018-09-02T03:10:20.660Z,102441.51
2018-09-02T03:13:24.017Z,102440.99
2018-09-02T03:16:27.247Z,102442.80
2018-09-02T03:19:30.599Z,102438.19
2018-09-02T03:22:34.075Z,102434.82
2018-09-02T03:25:37.787Z,102435.85
2018-09-02T03:28:41.118Z,102436.91
2018-09-02T03:31:44.372Z,102432.05
2018-09-02T03:34:47.731Z,102434.61
2018-09-02T03:37:51.061Z,102430.59
2018-09-02T03:40:54.374Z,102428.37
2018-09-02T03:43:57.632Z,102419.80
2018-09-02T03:47:00.991Z,102416.16
2018-09-02T03:50:04.260Z,102413.48
2018-09-02T03:53:08.155Z,102415.76
2018-09-02T03:56:11.550Z,102412.18
2018-09-02T03:59:14.847Z,102414.85
2018-09-02T04:02:18.144Z,102411.49
2018-09-02T04:05:23.517Z,102414.44
2018-09-02T04:08:26.798Z,102411.82
2018-09-02T04:11:30.222Z,102416.32
2018-09-02T04:14:33.487Z,102414.83
2018-09-02T04:17:36.908Z,102415.11
2018-09-02T04:20:41.196Z,102407.06
2018-09-02T04:23:44.514Z,102405.19
2018-09-02T04:26:47.872Z,102399.70
2018-09-02T04:29:51.087Z,102403.07
2018-09-02T04:32:54.422Z,102403.62
2018-09-02T04:35:57.664Z,102403.73
2018-09-02T04:39:00.881Z,102407.06
2018-09-02T04:42:04.085Z,102400.23
2018-09-02T04:45:08.275Z,102399.53
2018-09-02T04:48:11.507Z,102392.86
2018-09-02T04:51:14.693Z,102394.55
2018-09-02T04:54:18.049Z,102395.79
2018-09-02T04:57:21.285Z,102394.55
2018-09-02T05:00:24.615Z,102394.49
2018-09-02T05:03:27.803Z,102398.28
2018-09-02T05:06:31.071Z,102396.13
2018-09-02T05:09:34.348Z,102407.11
2018-09-02T05:12:37.692Z,102403.97
2018-09-02T05:15:41.079Z,102399.97
2018-09-02T05:18:44.403Z,102402.02
2018-09-02T05:21:47.720Z,102392.22
2018-09-02T05:24:51.996Z,102397.79
2018-09-02T05:27:55.290Z,102396.68
2018-09-02T05:30:58.591Z,102396.85
2018-09-02T05:34:01.879Z,102395.94
2018-09-02T05:37:05.294Z,102401.05
2018-09-02T05:40:09.635Z,102392.74
2018-09-02T05:43:12.906Z,102395.87
2018-09-02T05:46:16.215Z,102399.05
2018-09-02T05:49:20.647Z,102403.93
2018-09-02T05:52:23.899Z,102400.33
2018-09-02T05:55:27.097Z,102401.49
2018-09-02T05:58:30.529Z,102401.10
2018-09-02T06:01:33.803Z,102400.43
2018-09-02T06:04:37.091Z,102399.98
2018-09-02T06:07:41.445Z,102400.27
2018-09-02T06:10:44.732Z,102398.65
2018-09-02T06:13:48.257Z,102405.67
2018-09-02T06:16:51.531Z,102406.03
2018-09-02T06:19:54.818Z,102403.75
2018-09-02T06:22:58.133Z,102410.73
2018-09-02T06:26:01.415Z,102407.15
2018-09-02T06:29:04.707Z,102405.43
2018-09-02T06:32:08.004Z,102405.40
2018-09-02T06:35:11.532Z,102404.25
2018-09-02T06:38:14.907Z,102408.74
2018-09-02T06:41:18.178Z,102401.34
2018-09-02T06:44:21.392Z,102404.96
2018-09-02T06:47:24.724Z,102398.97
2018-09-02T06:50:29.009Z,102401.25
2018-09-02T06:53:32.312Z,102401.61
2018-09-02T06:56:35.683Z,102398.50
2018-09-02T06:59:39.354Z,102399.07
2018-09-02T07:02:42.851Z,102400.72
2018-09-02T07:05:47.140Z,102404.40
2018-09-02T07:08:50.453Z,102400.47
2018-09-02T07:11:53.750Z,102398.23
2018-09-02T07:14:56.934Z,102397.94
2018-09-02T07:18:00.360Z,102404.73
2018-09-02T07:21:03.634Z,102403.12
2018-09-02T07:24:06.861Z,102404.24
2018-09-02T07:27:10.787Z,102405.81
2018-09-02T07:30:15.415Z,102402.63
2018-09-02T07:33:18.689Z,102398.33
2018-09-02T07:36:22.002Z,102395.63
2018-09-02T07:39:25.316Z,102401.69
2018-09-02T07:42:28.585Z,102400.18
2018-09-02T07:45:32.939Z,102400.05
2018-09-02T07:48:36.217Z,102392.81
2018-09-02T07:51:41.962Z,102395.14
2018-09-02T07:54:45.294Z,102400.50
2018-09-02T07:57:49.547Z,102390.73
2018-09-02T08:00:53.589Z,102393.81
2018-09-02T08:03:56.830Z,102395.28
2018-09-02T08:07:00.142Z,102401.06
2018-09-02T08:10:03.435Z,102400.26
2018-09-02T08:13:06.585Z,102393.27
2018-09-02T08:16:10.464Z,102393.60
2018-09-02T08:19:13.747Z,102394.21
2018-09-02T08:22:17.073Z,102399.87
2018-09-02T08:25:20.231Z,102398.99
2018-09-02T08:28:24.587Z,102407.63
2018-09-02T08:31:27.879Z,102407.19
2018-09-02T08:34:31.186Z,102400.76
2018-09-02T08:37:34.510Z,102394.31
2018-09-02T08:40:37.767Z,102399.65
2018-09-02T08:43:41.091Z,102392.38
2018-09-02T08:46:44.285Z,102394.03
2018-09-02T08:49:48.567Z,102395.09
2018-09-02T08:52:51.850Z,102389.46
2018-09-02T08:55:56.254Z,102383.98
2018-09-02T08:58:59.497Z,102388.77
2018-09-02T09:02:03.158Z,102384.78
2018-09-02T09:05:06.430Z,102391.83
2018-09-02T09:08:10.252Z,102384.25
2018-09-02T09:11:13.380Z,102389.16
2018-09-02T09:14:16.531Z,102384.89
2018-09-02T09:17:19.782Z,102388.07
2018-09-02T09:20:23.151Z,102388.23
2018-09-02T09:23:26.467Z,102392.49
2018-09-02T09:26:30.826Z,102392.45
2018-09-02T09:29:34.134Z,102392.56
2018-09-02T09:32:38.856Z,102385.44
2018-09-02T09:35:42.115Z,102384.74
2018-09-02T09:38:45.281Z,102385.34
2018-09-02T09:41:48.667Z,102383.07
2018-09-02T09:44:52.533Z,102387.59
2018-09-02T09:47:55.699Z,102385.81
2018-09-02T09:50:59.011Z,102390.50
2018-09-02T09:54:03.654Z,102392.22
2018-09-02T09:57:07.121Z,102397.70
2018-09-02T10:00:10.331Z,102394.39
2018-09-02T10:03:13.568Z,102393.07
2018-09-02T10:06:16.863Z,102391.06
2018-09-02T10:09:20.143Z,102384.54
2018-09-02T10:12:23.372Z,102385.62
2018-09-02T10:15:26.726Z,102385.04
2018-09-02T10:18:29.907Z,102380.65
2018-09-02T10:21:33.480Z,102380.01
2018-09-02T10:24:37.183Z,102373.79
2018-09-02T10:27:42.946Z,102379.17
2018-09-02T10:30:46.198Z,102368.86
2018-09-02T10:33:49.507Z,102370.16
2018-09-02T10:36:52.828Z,102368.71
2018-09-02T10:39:56.658Z,102370.41
2018-09-02T10:43:00.196Z,102363.88
2018-09-02T10:46:04.728Z,102363.48
2018-09-02T10:49:08.702Z,102360.79
2018-09-02T10:52:11.855Z,102356.20
2018-09-02T10:55:15.121Z,102349.67
2018-09-02T10:58:18.376Z,102348.65
2018-09-02T11:01:21.689Z,102346.62
2018-09-02T11:04:24.935Z,102338.22
2018-09-02T11:07:28.703Z,102336.25
2018-09-02T11:10:31.964Z,102330.65
2018-09-02T11:13:35.403Z,102322.40
2018-09-02T11:16:38.691Z,102322.62
2018-09-02T11:19:44.327Z,102328.22
2018-09-02T11:22:47.744Z,102330.86
2018-09-02T11:25:53.032Z,102335.29
2018-09-02T11:28:56.299Z,102334.11
2018-09-02T11:31:59.526Z,102329.87
2018-09-02T11:35:03.974Z,102325.90
2018-09-02T11:38:07.352Z,102329.60
2018-09-02T11:41:10.637Z,102323.18
2018-09-02T11:44:13.947Z,102322.95
2018-09-02T11:47:17.207Z,102323.34
2018-09-02T11:50:21.297Z,102324.03
2018-09-02T11:53:24.559Z,102323.13
2018-09-02T11:56:27.864Z,102319.87
2018-09-02T11:59:31.036Z,102320.73
2018-09-02T12:02:34.352Z,102318.94
2018-09-02T12:05:37.635Z,102315.73
2018-09-02T12:08:41.843Z,102313.76
2018-09-02T12:11:45.278Z,102306.44
2018-09-02T12:14:48.455Z,102301.33
2018-09-02T12:17:51.748Z,102301.91
2018-09-02T12:20:54.948Z,102294.41
2018-09-02T12:23:58.383Z,102294.80
2018-09-02T12:27:01.859Z,102294.65
2018-09-02T12:30:05.131Z,102293.37
2018-09-02T12:33:08.295Z,102292.07
2018-09-02T12:36:11.743Z,102291.83
2018-09-02T12:39:15.057Z,102292.18
2018-09-02T12:42:18.490Z,102294.18
2018-09-02T12:45:21.780Z,102292.76
2018-09-02T12:48:26.101Z,102290.59
2018-09-02T12:51:29.333Z,102288.33
2018-09-02T12:54:33.627Z,102286.88
2018-09-02T12:57:37.283Z,102288.58
2018-09-02T13:00:41.226Z,102280.36
2018-09-02T13:03:44.466Z,102281.57
2018-09-02T13:06:47.792Z,102273.34
2018-09-02T13:09:51.066Z,102274.08
2018-09-02T13:12:54.292Z,102272.72
2018-09-02T13:15:57.593Z,102266.99
2018-09-02T13:19:00.933Z,102266.27
2018-09-02T13:22:04.047Z,102262.18
2018-09-02T13:25:07.372Z,102266.27
2018-09-02T13:28:11.639Z,102262.93
2018-09-02T13:31:14.891Z,102262.93
2018-09-02T13:34:18.174Z,102260.09
2018-09-02T13:37:21.465Z,102263.81
2018-09-02T13:40:24.822Z,102261.24
2018-09-02T13:43:28.083Z,102260.98
2018-09-02T13:46:31.361Z,102263.05
2018-09-02T13:49:34.579Z,102265.05
2018-09-02T13:52:37.879Z,102259.53
2018-09-02T13:55:41.894Z,102254.98
2018-09-02T13:58:47.253Z,102256.49
2018-09-02T14:01:50.495Z,102255.13
2018-09-02T14:04:53.824Z,102260.16
2018-09-02T14:07:57.354Z,102255.67
2018-09-02T14:11:00.547Z,102257.86
2018-09-02T14:14:03.830Z,102254.31
2018-09-02T14:17:07.146Z,102256.50
2018-09-02T14:20:10.799Z,102259.36
2018-09-02T14:23:14.152Z,102254.84
2018-09-02T14:26:18.156Z,102253.34
2018-09-02T14:29:21.435Z,102254.30
2018-09-02T14:32:24.759Z,102249.57
2018-09-02T14:35:28.053Z,102251.04
2018-09-02T14:38:31.435Z,102240.85
2018-09-02T14:41:34.726Z,102236.63
2018-09-02T14:44:38.012Z,102234.27
2018-09-02T14:47:42.369Z,102235.37
2018-09-02T14:50:45.706Z,102231.12
2018-09-02T14:53:48.976Z,102230.53
2018-09-02T14:56:52.182Z,102226.89
2018-09-02T14:59:55.432Z,102226.63
2018-09-02T15:02:58.739Z,102222.88
2018-09-02T15:06:02.364Z,102220.77
2018-09-02T15:09:07.729Z,102216.98
2018-09-02T15:12:11.924Z,102220.76
2018-09-02T15:15:15.204Z,102222.06
2018-09-02T15:18:18.627Z,102226.55
2018-09-02T15:21:21.971Z,102220.96
2018-09-02T15:24:25.312Z,102224.88
2018-09-02T15:27:28.590Z,102223.59
2018-09-02T15:30:31.875Z,102220.12
2018-09-02T15:33:35.223Z,102222.39
2018-09-02T15:36:38.507Z,102215.62
2018-09-02T15:39:42.628Z,102213.02
2018-09-02T15:42:45.945Z,102214.69
2018-09-02T15:45:49.163Z,102212.51
2018-09-02T15:48:52.523Z,102206.91
2018-09-02T15:51:55.790Z,102206.56
2018-09-02T15:54:59.103Z,102208.26
2018-09-02T15:58:02.518Z,102211.49
2018-09-02T16:01:05.995Z,102207.46
2018-09-02T16:04:10.028Z,102206.73
2018-09-02T16:07:13.295Z,102198.77
2018-09-02T16:10:16.579Z,102199.42
2018-09-02T16:13:19.817Z,102205.16
2018-09-02T16:16:23.145Z,102206.92
2018-09-02T16:19:26.484Z,102202.72
2018-09-02T16:22:29.862Z,102205.84
2018-09-02T16:25:33.218Z,102205.28
2018-09-02T16:28:36.604Z,102208.56
2018-09-02T16:31:40.434Z,102207.45
2018-09-02T16:34:43.910Z,102201.61
2018-09-02T16:37:47.226Z,102197.76
2018-09-02T16:40:50.723Z,102197.61
2018-09-02T16:43:54.028Z,102195.44
2018-09-02T16:46:57.275Z,102195.78
2018-09-02T16:50:00.590Z,102200.00
2018-09-02T16:53:04.026Z,102201.62
2018-09-02T16:56:07.327Z,102200.60
2018-09-02T16:59:11.567Z,102194.19
2018-09-02T17:02:14.991Z,102188.66
2018-09-02T17:05:23.227Z,102188.40
2018-09-02T17:08:26.551Z,102185.99
2018-09-02T17:11:29.926Z,102184.18
2018-09-02T17:14:33.138Z,102180.47
2018-09-02T17:17:36.440Z,102178.64
2018-09-02T17:20:42.967Z,102173.88
2018-09-02T17:23:46.276Z,102179.86
2018-09-02T17:26:49.715Z,102172.53
2018-09-02T17:29:52.988Z,102164.28
2018-09-02T17:32:56.333Z,102173.79
2018-09-02T17:35:59.603Z,102172.33
2018-09-02T17:39:03.119Z,102167.25
2018-09-02T17:42:06.381Z,102165.98
2018-09-02T17:45:09.740Z,102161.67
2018-09-02T17:48:14.136Z,102166.50
2018-09-02T17:51:17.425Z,102162.48
2018-09-02T17:54:20.714Z,102161.24
2018-09-02T17:57:24.012Z,102158.60
2018-09-02T18:00:33.612Z,102156.04
2018-09-02T18:03:36.784Z,102160.03
2018-09-02T18:06:40.157Z,102160.69
2018-09-02T18:09:44.020Z,102162.87
2018-09-02T18:12:49.320Z,102165.92
2018-09-02T18:15:54.826Z,102176.59
2018-09-02T18:18:58.057Z,102178.75
2018-09-02T18:22:01.511Z,102178.35
2018-09-02T18:25:04.887Z,102175.72
2018-09-02T18:28:10.699Z,102176.07
2018-09-02T18:31:14.063Z,102181.23
2018-09-02T18:34:17.347Z,102181.06
2018-09-02T18:37:20.556Z,102179.57
2018-09-02T18:40:23.839Z,102179.77
2018-09-02T18:43:27.176Z,102181.29
2018-09-02T18:46:30.463Z,102186.02
2018-09-02T18:49:33.747Z,102184.23
2018-09-02T18:52:37.091Z,102186.66
2018-09-02T18:55:40.251Z,102185.22
2018-09-02T18:58:45.584Z,102189.16
2018-09-02T19:01:48.895Z,102189.42
2018-09-02T19:04:52.194Z,102186.84
2018-09-02T19:07:55.391Z,102189.75
2018-09-02T19:10:58.691Z,102186.63
2018-09-02T19:14:02.957Z,102186.71
2018-09-02T19:17:06.535Z,102190.80
2018-09-02T19:20:09.845Z,102195.23
2018-09-02T19:23:13.115Z,102195.87
2018-09-02T19:26:16.423Z,102200.84
2018-09-02T19:29:20.676Z,102197.70
2018-09-02T19:32:23.960Z,102198.40
2018-09-02T19:35:27.757Z,102198.89
2018-09-02T19:38:31.061Z,102191.33
2018-09-02T19:41:34.393Z,102187.48
2018-09-02T19:44:37.640Z,102188.54
2018-09-02T19:47:41.024Z,102188.09
2018-09-02T19:50:44.348Z,102182.61
2018-09-02T19:53:47.592Z,102183.09
2018-09-02T19:56:50.912Z,102181.90
2018-09-02T19:59:55.943Z,102179.88
2018-09-02T20:02:59.157Z,102176.28
2018-09-02T20:06:02.469Z,102175.25
2018-09-02T20:09:08.757Z,102172.56
2018-09-02T20:12:12.035Z,102169.78
2018-09-02T20:15:15.340Z,102163.90
2018-09-02T20:18:18.728Z,102161.52
2018-09-02T20:21:21.999Z,102160.19
2018-09-02T20:24:26.011Z,102159.17
2018-09-02T20:27:30.397Z,102160.84
2018-09-02T20:30:33.707Z,102158.17
2018-09-02T20:33:36.915Z,102155.72
2018-09-02T20:36:40.281Z,102154.85
2018-09-02T20:39:43.662Z,102158.27
2018-09-02T20:42:46.951Z,102159.92
2018-09-02T20:45:50.219Z,102161.63
2018-09-02T20:48:54.615Z,102160.18
2018-09-02T20:51:58.566Z,102160.84
2018-09-02T20:55:01.836Z,102156.03
2018-09-02T20:58:04.961Z,102152.06
2018-09-02T21:01:08.222Z,102156.84
2018-09-02T21:04:11.543Z,102156.39
2018-09-02T21:07:14.892Z,102152.39
2018-09-02T21:10:18.252Z,102151.88
2018-09-02T21:13:23.483Z,102150.44
2018-09-02T21:16:27.587Z,102153.31
2018-09-02T21:19:30.899Z,102151.34
2018-09-02T21:22:34.184Z,102157.54
2018-09-02T21:25:37.524Z,102152.51
2018-09-02T21:28:40.810Z,102158.61
2018-09-02T21:31:43.985Z,102160.97
2018-09-02T21:34:47.288Z,102161.70
2018-09-02T21:37:51.511Z,102159.04
2018-09-02T21:40:54.695Z,102157.97
2018-09-02T21:43:59.219Z,102156.88
2018-09-02T21:47:02.482Z,102158.93
2018-09-02T21:50:06.257Z,102154.69
2018-09-02T21:53:09.515Z,102152.08
2018-09-02T21:56:13.732Z,102150.24
2018-09-02T21:59:17.047Z,102151.26
2018-09-02T22:02:20.471Z,102149.05
2018-09-02T22:05:23.748Z,102147.16
2018-09-02T22:08:27.943Z,102146.41
2018-09-02T22:11:31.235Z,102141.59
2018-09-02T22:14:34.411Z,102137.57
2018-09-02T22:17:37.877Z,102136.74
2018-09-02T22:20:41.142Z,102133.72
2018-09-02T22:23:44.355Z,102132.64
2018-09-02T22:26:47.640Z,102123.09
2018-09-02T22:29:50.941Z,102124.56
2018-09-02T22:32:54.224Z,102125.93
2018-09-02T22:35:58.409Z,102127.51
2018-09-02T22:39:01.675Z,102123.30
2018-09-02T22:42:04.935Z,102123.39
2018-09-02T22:45:08.268Z,102119.71
2018-09-02T22:48:11.442Z,102114.85
2018-09-02T22:51:14.726Z,102107.55
2018-09-02T22:54:18.016Z,102113.32
2018-09-02T22:57:21.319Z,102106.54
2018-09-02T23:00:24.623Z,102098.39
2018-09-02T23:03:28.607Z,102100.70
2018-09-02T23:06:31.809Z,102094.60
2018-09-02T23:09:35.137Z,102092.91
2018-09-02T23:12:38.419Z,102084.81
2018-09-02T23:15:41.617Z,102078.92
2018-09-02T23:18:44.982Z,102074.17
2018-09-02T23:21:48.337Z,102064.95
2018-09-02T23:24:51.611Z,102059.25
2018-09-02T23:27:54.947Z,102042.78
2018-09-02T23:30:58.204Z,102040.28
2018-09-02T23:34:01.455Z,102036.22
2018-09-02T23:37:04.838Z,102030.77
2018-09-02T23:40:08.130Z,102029.17
2018-09-02T23:43:11.406Z,102023.68
2018-09-02T23:46:14.629Z,102011.74
2018-09-02T23:49:17.887Z,102009.57
2018-09-02T23:52:21.284Z,102004.04
2018-09-02T23:55:24.620Z,101995.14
2018-09-02T23:58:28.782Z,101989.62
